^^
Station Historical Data
Daily Summary for January 12, 2019 Units:  English    Metric   Both
« Previous Day
Next Day »
Daily Weekly Monthly Yearly Custom
  High: Low: Average:
Temperature: TemperatureF °F -9.8 °F -1.1 °F
Dew Point: DewpointF °F -13.8 °F -6.7 °F
Humidity: Humidity % 66 % 77 %
Wind Speed: WindSpeedMPH mph 0.0 mph 0.6 mph
Wind Gust: WindSpeedGustMPH mph - -
Wind:- - NW
Pressure: PressureIn in 30.37 in -
Precipitation: 0.00 in    
Historical Graphs
 
 
Tabular Data for January 12, 2019
Time Temperature Dew Point Pressure Wind Wind Speed Wind Gust Humidity Rainfall Rate (Hourly) solar Conditions
TemperatureF °F DewpointF °F PressureIn in Calm     Humidity % HourlyPrecipIn in SoftwareType W/m2 Conditions
00:00 1.1 °F -5.3 °F 30.37 in NNW 1.0 mph 3.0 mph 74 % 0.00 in WeatherDisplay:10.37 W/m2 FEW
00:05 1.0 °F -5.4 °F 30.37 in NW 1.0 mph 4.0 mph 74 % 0.00 in WeatherDisplay:10.37 W/m2 FEW
00:10 0.9 °F -5.4 °F 30.37 in Calm   2.0 mph 74 % 0.00 in WeatherDisplay:10.37 W/m2 FEW
00:15 0.9 °F -5.5 °F 30.37 in Calm   3.0 mph 74 % 0.00 in WeatherDisplay:10.37 W/m2 FEW
00:20 0.8 °F -5.5 °F 30.37 in Calm   2.0 mph 74 % 0.00 in WeatherDisplay:10.37 W/m2 FEW
00:25 0.7 °F -5.6 °F 30.37 in Calm   3.0 mph 74 % 0.00 in WeatherDisplay:10.37 W/m2 FEW
00:30 0.6 °F -5.7 °F 30.38 in Calm   2.0 mph 74 % 0.00 in WeatherDisplay:10.37 W/m2 FEW
00:35 0.5 °F -5.6 °F 30.37 in Calm   1.0 mph 75 % 0.00 in WeatherDisplay:10.37 W/m2 FEW
00:40 0.4 °F -5.7 °F 30.37 in Calm   5.0 mph 75 % 0.00 in WeatherDisplay:10.37 W/m2 FEW
00:45 0.3 °F -5.8 °F 30.38 in Calm   3.0 mph 75 % 0.00 in WeatherDisplay:10.37 W/m2 FEW
00:50 0.2 °F -5.8 °F 30.38 in Calm     75 % 0.00 in WeatherDisplay:10.37 W/m2 FEW
00:55 0.1 °F -5.9 °F 30.38 in Calm     75 % 0.00 in WeatherDisplay:10.37 W/m2 FEW
01:00 0.0 °F -6.0 °F 30.38 in Calm   3.0 mph 75 % 0.00 in WeatherDisplay:10.37 W/m2 FEW
01:05 -0.1 °F -6.2 °F 30.38 in Calm   2.0 mph 75 % 0.00 in WeatherDisplay:10.37 W/m2 FEW
01:10 -0.2 °F -6.2 °F 30.38 in Calm   1.0 mph 75 % 0.00 in WeatherDisplay:10.37 W/m2 FEW
01:15 -0.3 °F -6.1 °F 30.38 in Calm   1.0 mph 76 % 0.00 in WeatherDisplay:10.37 W/m2 FEW
01:20 -0.4 °F -6.1 °F 30.38 in Calm     76 % 0.00 in WeatherDisplay:10.37 W/m2 FEW
01:25 -0.4 °F -6.2 °F 30.39 in Calm     76 % 0.00 in WeatherDisplay:10.37 W/m2 FEW
01:30 -0.5 °F -6.3 °F 30.39 in Calm     76 % 0.00 in WeatherDisplay:10.37 W/m2 FEW
01:35 -0.6 °F -6.4 °F 30.39 in Calm   1.0 mph 76 % 0.00 in WeatherDisplay:10.37 W/m2 FEW
01:40 -0.7 °F -6.4 °F 30.39 in Calm     76 % 0.00 in WeatherDisplay:10.37 W/m2 FEW
01:45 -0.8 °F -6.5 °F 30.39 in Calm     76 % 0.00 in WeatherDisplay:10.37 W/m2 FEW
01:50 -0.9 °F -6.7 °F 30.39 in Calm     76 % 0.00 in WeatherDisplay:10.37 W/m2 FEW
01:55 -1.1 °F -6.8 °F 30.39 in Calm     76 % 0.00 in WeatherDisplay:10.37 W/m2 FEW
02:00 -1.3 °F -7.1 °F 30.40 in Calm     76 % 0.00 in WeatherDisplay:10.37 W/m2 FEW
02:05 -1.6 °F -7.3 °F 30.40 in Calm     76 % 0.00 in WeatherDisplay:10.37 W/m2 FEW
02:10 -1.8 °F -7.5 °F 30.40 in Calm     76 % 0.00 in WeatherDisplay:10.37 W/m2 FEW
02:15 -2.0 °F -7.7 °F 30.40 in Calm     76 % 0.00 in WeatherDisplay:10.37 W/m2 FEW
02:20 -2.2 °F -7.9 °F 30.41 in Calm   2.0 mph 76 % 0.00 in WeatherDisplay:10.37 W/m2 FEW
02:25 -2.4 °F -8.1 °F 30.41 in Calm   2.0 mph 76 % 0.00 in WeatherDisplay:10.37 W/m2 FEW
02:30 -2.7 °F -8.1 °F 30.41 in Calm   1.0 mph 77 % 0.00 in WeatherDisplay:10.37 W/m2 FEW
02:35 -2.9 °F -8.3 °F 30.41 in Calm   1.0 mph 77 % 0.00 in WeatherDisplay:10.37 W/m2 FEW
02:40 -3.1 °F -8.5 °F 30.41 in Calm   1.0 mph 77 % 0.00 in WeatherDisplay:10.37 W/m2 FEW
02:45 -3.3 °F -8.7 °F 30.41 in Calm     77 % 0.00 in WeatherDisplay:10.37 W/m2 FEW
02:50 -3.4 °F -8.5 °F 30.41 in Calm     78 % 0.00 in WeatherDisplay:10.37 W/m2 FEW
02:55 -3.5 °F -8.6 °F 30.42 in Calm     78 % 0.00 in WeatherDisplay:10.37 W/m2 FEW
03:00 -3.6 °F -8.7 °F 30.42 in Calm   1.0 mph 78 % 0.00 in WeatherDisplay:10.37 W/m2 FEW
03:05 -3.8 °F -8.9 °F 30.42 in Calm   1.0 mph 78 % 0.00 in WeatherDisplay:10.37 W/m2 FEW
03:10 -3.9 °F -9.0 °F 30.42 in Calm     78 % 0.00 in WeatherDisplay:10.37 W/m2 FEW
03:15 -4.0 °F -8.9 °F 30.42 in Calm     79 % 0.00 in WeatherDisplay:10.37 W/m2 FEW
03:20 -4.2 °F -9.3 °F 30.42 in Calm     78 % 0.00 in WeatherDisplay:10.37 W/m2 FEW
03:25 -4.3 °F -9.4 °F 30.42 in Calm     78 % 0.00 in WeatherDisplay:10.37 W/m2 FEW
03:30 -4.5 °F -9.4 °F 30.43 in Calm     79 % 0.00 in WeatherDisplay:10.37 W/m2 FEW
03:35 -4.7 °F -9.8 °F 30.43 in Calm     78 % 0.00 in WeatherDisplay:10.37 W/m2 FEW
03:40 -4.9 °F -9.7 °F 30.43 in Calm     79 % 0.00 in WeatherDisplay:10.37 W/m2 FEW
03:45 -5.1 °F -9.9 °F 30.43 in Calm     79 % 0.00 in WeatherDisplay:10.37 W/m2 FEW
03:50 -5.3 °F -10.1 °F 30.43 in Calm     79 % 0.00 in WeatherDisplay:10.37 W/m2 FEW
03:55 -5.4 °F -10.3 °F 30.43 in Calm     79 % 0.00 in WeatherDisplay:10.37 W/m2 FEW
04:00 -5.6 °F -10.4 °F 30.43 in Calm     79 % 0.00 in WeatherDisplay:10.37 W/m2 FEW
04:05 -5.8 °F -10.6 °F 30.43 in Calm     79 % 0.00 in WeatherDisplay:10.37 W/m2 FEW
04:10 -5.9 °F -10.7 °F 30.43 in Calm     79 % 0.00 in WeatherDisplay:10.37 W/m2 FEW
04:15 -6.1 °F -10.9 °F 30.43 in Calm     79 % 0.00 in WeatherDisplay:10.37 W/m2 FEW
04:20 -6.3 °F -11.1 °F 30.43 in Calm     79 % 0.00 in WeatherDisplay:10.37 W/m2 FEW
04:25 -6.4 °F -11.3 °F 30.43 in Calm     79 % 0.00 in WeatherDisplay:10.37 W/m2 FEW
04:30 -6.7 °F -11.3 °F 30.43 in Calm     80 % 0.00 in WeatherDisplay:10.37 W/m2 FEW
04:35 -6.9 °F -11.7 °F 30.43 in Calm     79 % 0.00 in WeatherDisplay:10.37 W/m2 FEW
04:40 -7.1 °F -11.9 °F 30.43 in Calm     79 % 0.00 in WeatherDisplay:10.37 W/m2 FEW
04:45 -7.3 °F -12.1 °F 30.43 in Calm     79 % 0.00 in WeatherDisplay:10.37 W/m2 FEW
04:50 -7.6 °F -12.4 °F 30.44 in Calm     79 % 0.00 in WeatherDisplay:10.37 W/m2 FEW
04:55 -7.8 °F -12.3 °F 30.44 in Calm     80 % 0.00 in WeatherDisplay:10.37 W/m2 FEW
05:00 -8.0 °F -12.5 °F 30.44 in Calm     80 % 0.00 in WeatherDisplay:10.37 W/m2 FEW
05:05 -8.1 °F -12.6 °F 30.44 in Calm     80 % 0.00 in WeatherDisplay:10.37 W/m2 FEW
05:10 -8.3 °F -12.8 °F 30.44 in Calm     80 % 0.00 in WeatherDisplay:10.37 W/m2 FEW
05:15 -8.4 °F -12.9 °F 30.44 in Calm     80 % 0.00 in WeatherDisplay:10.37 W/m2 FEW
05:20 -8.5 °F -13.0 °F 30.44 in Calm     80 % 0.00 in WeatherDisplay:10.37 W/m2 FEW
05:25 -8.6 °F -13.1 °F 30.44 in Calm     80 % 0.00 in WeatherDisplay:10.37 W/m2 FEW
05:30 -8.7 °F -13.2 °F 30.44 in Calm     80 % 0.00 in WeatherDisplay:10.37 W/m2 FEW
05:35 -8.7 °F -13.2 °F 30.45 in Calm     80 % 0.00 in WeatherDisplay:10.37 W/m2 FEW
05:40 -8.8 °F -13.1 °F 30.45 in Calm     81 % 0.00 in WeatherDisplay:10.37 W/m2 FEW
05:45 -8.8 °F -13.1 °F 30.45 in Calm     81 % 0.00 in WeatherDisplay:10.37 W/m2 FEW
05:50 -8.9 °F -13.2 °F 30.45 in Calm     81 % 0.00 in WeatherDisplay:10.37 W/m2 FEW
05:55 -8.9 °F -13.2 °F 30.45 in Calm     81 % 0.00 in WeatherDisplay:10.37 W/m2 FEW
06:00 -9.0 °F -13.3 °F 30.45 in Calm     81 % 0.00 in WeatherDisplay:10.37 W/m2 FEW
06:05 -9.0 °F -13.3 °F 30.46 in Calm     81 % 0.00 in WeatherDisplay:10.37 W/m2 FEW
06:10 -9.0 °F -13.0 °F 30.46 in Calm     82 % 0.00 in WeatherDisplay:10.37 W/m2 FEW
06:15 -8.9 °F -12.9 °F 30.46 in Calm     82 % 0.00 in WeatherDisplay:10.37 W/m2 FEW
06:20 -8.9 °F -12.9 °F 30.46 in Calm     82 % 0.00 in WeatherDisplay:10.37 W/m2 FEW
06:25 -8.9 °F -12.9 °F 30.46 in Calm     82 % 0.00 in WeatherDisplay:10.37 W/m2 FEW
06:30 -8.9 °F -12.9 °F 30.46 in Calm     82 % 0.00 in WeatherDisplay:10.37 W/m2 FEW
06:35 -9.0 °F -13.0 °F 30.47 in Calm     82 % 0.00 in WeatherDisplay:10.37 W/m2 FEW
06:40 -9.0 °F -13.0 °F 30.47 in Calm     82 % 0.00 in WeatherDisplay:10.37 W/m2 FEW
06:45 -9.1 °F -13.1 °F 30.47 in Calm     82 % 0.00 in WeatherDisplay:10.37 W/m2 FEW
06:50 -9.2 °F -13.2 °F 30.47 in Calm     82 % 0.00 in WeatherDisplay:10.37 W/m2 FEW
06:55 -9.2 °F -13.2 °F 30.47 in Calm   1.0 mph 82 % 0.00 in WeatherDisplay:10.37 W/m2 FEW
07:00 -9.3 °F -13.3 °F 30.47 in Calm     82 % 0.00 in WeatherDisplay:10.37 W/m2 FEW
07:05 -9.4 °F -13.4 °F 30.47 in Calm     82 % 0.00 in WeatherDisplay:10.37 W/m2 FEW
07:10 -9.4 °F -13.4 °F 30.48 in Calm     82 % 0.00 in WeatherDisplay:10.37 W/m2 FEW
07:15 -9.4 °F -13.4 °F 30.48 in Calm     82 % 0.00 in WeatherDisplay:10.37 W/m2 FEW
07:20 -9.5 °F -13.5 °F 30.48 in Calm     82 % 0.00 in WeatherDisplay:10.37 W/m2 FEW
07:25 -9.5 °F -13.5 °F 30.48 in Calm     82 % 0.00 in WeatherDisplay:10.37 W/m2 FEW
07:30 -9.5 °F -13.5 °F 30.48 in Calm     82 % 0.00 in WeatherDisplay:10.37 W/m2 FEW
07:35 -9.5 °F -13.5 °F 30.48 in Calm     82 % 0.00 in WeatherDisplay:10.37 W/m2 FEW
07:40 -9.6 °F -13.6 °F 30.49 in Calm     82 % 0.00 in WeatherDisplay:10.37 W/m2 FEW
07:45 -9.6 °F -13.6 °F 30.49 in Calm     82 % 0.00 in WeatherDisplay:10.37 W/m2 FEW
07:50 -9.7 °F -13.7 °F 30.49 in Calm   1.0 mph 82 % 0.00 in WeatherDisplay:10.37 W/m2 FEW
07:55 -9.7 °F -13.7 °F 30.49 in Calm   1.0 mph 82 % 0.00 in WeatherDisplay:10.37 W/m2 FEW
08:00 -9.8 °F -13.8 °F 30.49 in Calm     82 % 0.00 in WeatherDisplay:10.37 W/m2 FEW
08:05 -9.8 °F -13.8 °F 30.50 in Calm     82 % 0.00 in WeatherDisplay:10.37 W/m2 FEW
08:10 -9.7 °F -13.5 °F 30.50 in Calm   1.0 mph 83 % 0.00 in WeatherDisplay:10.37 W/m2 FEW
08:15 -9.6 °F -13.4 °F 30.50 in Calm   2.0 mph 83 % 0.00 in WeatherDisplay:10.37 W/m2 FEW
08:20 -9.5 °F -13.3 °F 30.50 in Calm   1.0 mph 83 % 0.00 in WeatherDisplay:10.37 W/m2 FEW
08:25 -9.4 °F -13.1 °F 30.51 in Calm   2.0 mph 83 % 0.00 in WeatherDisplay:10.37 W/m2 FEW
08:30 -9.2 °F -12.7 °F 30.51 in Calm   4.0 mph 84 % 0.00 in WeatherDisplay:10.37 W/m2 FEW
08:35 -8.9 °F -12.4 °F 30.51 in Calm   2.0 mph 84 % 0.00 in WeatherDisplay:10.37 W/m2 FEW
08:40 -8.6 °F -12.2 °F 30.52 in Calm   2.0 mph 84 % 0.00 in WeatherDisplay:10.37 W/m2 FEW
08:45 -8.3 °F -11.6 °F 30.52 in Calm   2.0 mph 85 % 0.00 in WeatherDisplay:10.37 W/m2 FEW
08:50 -8.0 °F -11.3 °F 30.52 in Calm   1.0 mph 85 % 0.00 in WeatherDisplay:10.37 W/m2 FEW
08:55 -7.5 °F -10.9 °F 30.52 in Calm   3.0 mph 85 % 0.00 in WeatherDisplay:10.37 W/m2 FEW
09:00 -6.9 °F -10.0 °F 30.52 in NW 1.0 mph 3.0 mph 86 % 0.00 in WeatherDisplay:10.37 W/m2 FEW
09:05 -6.3 °F -9.4 °F 30.53 in Calm   2.0 mph 86 % 0.00 in WeatherDisplay:10.37 W/m2 FEW
09:10 -5.9 °F -9.0 °F 30.53 in Calm   2.0 mph 86 % 0.00 in WeatherDisplay:10.37 W/m2 FEW
09:15 -5.6 °F -8.7 °F 30.53 in Calm   1.0 mph 86 % 0.00 in WeatherDisplay:10.37 W/m2 FEW
09:20 -5.4 °F -8.5 °F 30.53 in Calm     86 % 0.00 in WeatherDisplay:10.37 W/m2 FEW
09:25 -5.0 °F -8.1 °F 30.53 in Calm     86 % 0.00 in WeatherDisplay:10.37 W/m2 FEW
09:30 -4.6 °F -7.5 °F 30.53 in Calm     87 % 0.00 in WeatherDisplay:10.37 W/m2 FEW
09:35 -4.3 °F -7.2 °F 30.53 in Calm     87 % 0.00 in WeatherDisplay:10.37 W/m2 FEW
09:40 -3.8 °F -6.7 °F 30.53 in Calm   3.0 mph 87 % 0.00 in WeatherDisplay:10.37 W/m2 FEW
09:45 -3.2 °F -6.1 °F 30.53 in Calm   5.0 mph 87 % 0.00 in WeatherDisplay:10.37 W/m2 FEW
09:50 -2.4 °F -5.3 °F 30.53 in NW 2.0 mph 5.0 mph 87 % 0.00 in WeatherDisplay:10.37 W/m2 FEW
09:55 -1.5 °F -4.4 °F 30.53 in NNW 3.0 mph 6.0 mph 87 % 0.00 in WeatherDisplay:10.37 W/m2 FEW
10:00 -0.8 °F -3.9 °F 30.53 in NW 2.0 mph 5.0 mph 86 % 0.00 in WeatherDisplay:10.37 W/m2 FEW
10:05 -0.1 °F -3.5 °F 30.53 in NW 1.0 mph 6.0 mph 85 % 0.00 in WeatherDisplay:10.37 W/m2 FEW
10:10 0.3 °F -3.4 °F 30.53 in NW 1.0 mph 4.0 mph 84 % 0.00 in WeatherDisplay:10.37 W/m2 FEW
10:15 0.9 °F -3.1 °F 30.53 in NW 2.0 mph 7.0 mph 83 % 0.00 in WeatherDisplay:10.37 W/m2 FEW
10:20 1.4 °F -3.1 °F 30.53 in Calm   7.0 mph 81 % 0.00 in WeatherDisplay:10.37 W/m2 FEW
10:25 1.8 °F -3.0 °F 30.53 in NW 2.0 mph 5.0 mph 80 % 0.00 in WeatherDisplay:10.37 W/m2 FEW
10:30 2.2 °F -2.5 °F 30.53 in NW 6.0 mph 9.0 mph 80 % 0.00 in WeatherDisplay:10.37 W/m2 FEW
10:35 2.7 °F -2.4 °F 30.53 in NW 2.0 mph 10.0 mph 79 % 0.00 in WeatherDisplay:10.37 W/m2 FEW
10:40 3.0 °F -2.3 °F 30.53 in NW 1.0 mph 7.0 mph 78 % 0.00 in WeatherDisplay:10.37 W/m2 FEW
10:45 3.4 °F -2.2 °F 30.53 in NW 2.0 mph 6.0 mph 77 % 0.00 in WeatherDisplay:10.37 W/m2 FEW
10:50 3.7 °F -2.2 °F 30.53 in NW 2.0 mph 7.0 mph 76 % 0.00 in WeatherDisplay:10.37 W/m2 FEW
10:55 4.2 °F -1.7 °F 30.52 in NW 2.0 mph 12.0 mph 76 % 0.00 in WeatherDisplay:10.37 W/m2 FEW
11:00 4.5 °F -1.4 °F 30.53 in NNW 1.0 mph 5.0 mph 76 % 0.00 in WeatherDisplay:10.37 W/m2 FEW
11:05 4.8 °F -1.4 °F 30.52 in NW 2.0 mph 7.0 mph 75 % 0.00 in WeatherDisplay:10.37 W/m2 FEW
11:10 5.1 °F -1.1 °F 30.52 in NW 2.0 mph 5.0 mph 75 % 0.00 in WeatherDisplay:10.37 W/m2 FEW
11:15 5.4 °F -1.1 °F 30.52 in NW 5.0 mph 9.0 mph 74 % 0.00 in WeatherDisplay:10.37 W/m2 FEW
11:20 5.7 °F -0.8 °F 30.52 in NW 5.0 mph 7.0 mph 74 % 0.00 in WeatherDisplay:10.37 W/m2 FEW
11:25 5.9 °F -0.6 °F 30.52 in NW 2.0 mph 5.0 mph 74 % 0.00 in WeatherDisplay:10.37 W/m2 FEW
11:30 6.1 °F -0.4 °F 30.52 in NW 2.0 mph 6.0 mph 74 % 0.00 in WeatherDisplay:10.37 W/m2 FEW
11:35 6.4 °F -0.4 °F 30.52 in Calm   5.0 mph 73 % 0.00 in WeatherDisplay:10.37 W/m2 FEW
11:40 6.6 °F -0.2 °F 30.52 in Calm   7.0 mph 73 % 0.00 in WeatherDisplay:10.37 W/m2 FEW
11:45 6.9 °F 0.1 °F 30.51 in NW 3.0 mph 7.0 mph 73 % 0.00 in WeatherDisplay:10.37 W/m2 FEW
11:50 7.2 °F 0.1 °F 30.51 in NW 1.0 mph 7.0 mph 72 % 0.00 in WeatherDisplay:10.37 W/m2 FEW
11:55 7.4 °F 0.3 °F 30.51 in Calm   4.0 mph 72 % 0.00 in WeatherDisplay:10.37 W/m2 FEW
12:00 7.6 °F 0.5 °F 30.51 in NNW 1.0 mph 5.0 mph 72 % 0.00 in WeatherDisplay:10.37 W/m2 FEW
12:05 7.7 °F 0.3 °F 30.51 in NNW 1.0 mph 9.0 mph 71 % 0.00 in WeatherDisplay:10.37 W/m2 FEW
12:10 7.9 °F 0.4 °F 30.51 in NW 2.0 mph 7.0 mph 71 % 0.00 in WeatherDisplay:10.37 W/m2 FEW
12:15 8.0 °F 0.2 °F 30.51 in NW 2.0 mph 7.0 mph 70 % 0.00 in WeatherDisplay:10.37 W/m2 FEW
12:20 8.1 °F 0.3 °F 30.51 in NW 3.0 mph 6.0 mph 70 % 0.00 in WeatherDisplay:10.37 W/m2 FEW
12:25 8.2 °F 0.4 °F 30.50 in NNW 1.0 mph 6.0 mph 70 % 0.00 in WeatherDisplay:10.37 W/m2 FEW
12:30 8.3 °F 0.6 °F 30.51 in NNW 1.0 mph 5.0 mph 70 % 0.00 in WeatherDisplay:10.37 W/m2 FEW
12:35 8.5 °F 0.7 °F 30.50 in Calm   4.0 mph 70 % 0.00 in WeatherDisplay:10.37 W/m2 FEW
12:40 8.5 °F 0.8 °F 30.50 in NNW 1.0 mph 6.0 mph 70 % 0.00 in WeatherDisplay:10.37 W/m2 FEW
12:45 8.6 °F 0.8 °F 30.51 in NW 2.0 mph 5.0 mph 70 % 0.00 in WeatherDisplay:10.37 W/m2 FEW
12:50 8.7 °F 0.6 °F 30.51 in Calm   6.0 mph 69 % 0.00 in WeatherDisplay:10.37 W/m2 FEW
12:55 8.8 °F 1.0 °F 30.51 in Calm   3.0 mph 70 % 0.00 in WeatherDisplay:10.37 W/m2 FEW
13:00 9.0 °F 0.9 °F 30.51 in Calm   6.0 mph 69 % 0.00 in WeatherDisplay:10.37 W/m2 FEW
13:05 9.1 °F 1.0 °F 30.51 in NW 1.0 mph 5.0 mph 69 % 0.00 in WeatherDisplay:10.37 W/m2 FEW
13:10 9.2 °F 0.8 °F 30.51 in NW 2.0 mph 5.0 mph 68 % 0.00 in WeatherDisplay:10.37 W/m2 FEW
13:15 9.3 °F 0.9 °F 30.51 in NW 2.0 mph 10.0 mph 68 % 0.00 in WeatherDisplay:10.37 W/m2 FEW
13:25 9.3 °F 0.5 °F 30.51 in NW 3.0 mph 8.0 mph 67 % 0.00 in WeatherDisplay:10.37 W/m2 FEW
13:35 9.3 °F 0.5 °F 30.51 in NNW 3.0 mph 7.0 mph 67 % 0.00 in WeatherDisplay:10.37 W/m2 FEW
13:40 9.3 °F 0.6 °F 30.51 in NNW 2.0 mph 5.0 mph 67 % 0.00 in WeatherDisplay:10.37 W/m2 FEW
13:45 9.4 °F 1.0 °F 30.52 in NNW 1.0 mph 7.0 mph 68 % 0.00 in WeatherDisplay:10.37 W/m2 FEW
13:55 9.5 °F 0.7 °F 30.52 in NW 3.0 mph 8.0 mph 67 % 0.00 in WeatherDisplay:10.37 W/m2 FEW
14:05 9.5 °F 0.7 °F 30.52 in NW 2.0 mph 8.0 mph 67 % 0.00 in WeatherDisplay:10.37 W/m2 FEW
14:10 9.6 °F 0.8 °F 30.52 in NW 2.0 mph 5.0 mph 67 % 0.00 in WeatherDisplay:10.37 W/m2 FEW
14:15 9.6 °F 0.9 °F 30.52 in WNW 3.0 mph 7.0 mph 67 % 0.00 in WeatherDisplay:10.37 W/m2 FEW
14:20 9.7 °F 0.9 °F 30.52 in NW 3.0 mph 8.0 mph 67 % 0.00 in WeatherDisplay:10.37 W/m2 FEW
14:25 9.8 °F 1.0 °F 30.52 in NW 3.0 mph 8.0 mph 67 % 0.00 in WeatherDisplay:10.37 W/m2 FEW
14:30 9.8 °F 1.0 °F 30.52 in NW 1.0 mph 6.0 mph 67 % 0.00 in WeatherDisplay:10.37 W/m2 FEW
14:35 9.9 °F 1.1 °F 30.52 in NW 2.0 mph 7.0 mph 67 % 0.00 in WeatherDisplay:10.37 W/m2 FEW
14:45 9.9 °F 0.8 °F 30.52 in NW 3.0 mph 9.0 mph 66 % 0.00 in WeatherDisplay:10.37 W/m2 FEW
14:50 9.8 °F 0.7 °F 30.52 in NW 2.0 mph 9.0 mph 66 % 0.00 in WeatherDisplay:10.37 W/m2 FEW
14:55 9.9 °F 0.8 °F 30.52 in NW 3.0 mph 7.0 mph 66 % 0.00 in WeatherDisplay:10.37 W/m2 FEW
15:00 9.9 °F 1.1 °F 30.53 in NW 5.0 mph 7.0 mph 67 % 0.00 in WeatherDisplay:10.37 W/m2 FEW
15:05 9.9 °F 0.8 °F 30.53 in NW 3.0 mph 9.0 mph 66 % 0.00 in WeatherDisplay:10.37 W/m2 FEW
15:10 9.9 °F 0.8 °F 30.53 in NW 2.0 mph 9.0 mph 66 % 0.00 in WeatherDisplay:10.37 W/m2 FEW
15:15 9.9 °F 0.8 °F 30.53 in NW 2.0 mph 10.0 mph 66 % 0.00 in WeatherDisplay:10.37 W/m2 FEW
15:20 9.8 °F 0.7 °F 30.53 in NW 2.0 mph 8.0 mph 66 % 0.00 in WeatherDisplay:10.37 W/m2 FEW
15:25 9.7 °F 0.6 °F 30.53 in NW 2.0 mph 8.0 mph 66 % 0.00 in WeatherDisplay:10.37 W/m2 FEW
15:35 9.4 °F 0.3 °F 30.53 in NW 5.0 mph 9.0 mph 66 % 0.00 in WeatherDisplay:10.37 W/m2 FEW
15:40 9.3 °F 0.2 °F 30.53 in NW 5.0 mph 12.0 mph 66 % 0.00 in WeatherDisplay:10.37 W/m2 FEW
15:45 9.1 °F 0.0 °F 30.53 in NW 3.0 mph 14.0 mph 66 % 0.00 in WeatherDisplay:10.37 W/m2 FEW
15:50 9.0 °F -0.1 °F 30.53 in NW 3.0 mph 14.0 mph 66 % 0.00 in WeatherDisplay:10.37 W/m2 FEW
15:55 8.8 °F 0.1 °F 30.54 in NW 2.0 mph 9.0 mph 67 % 0.00 in WeatherDisplay:10.37 W/m2 FEW
16:00 8.7 °F 0.0 °F 30.54 in Calm   4.0 mph 67 % 0.00 in WeatherDisplay:10.37 W/m2 FEW
16:05 8.6 °F -0.1 °F 30.54 in NW 5.0 mph 7.0 mph 67 % 0.00 in WeatherDisplay:10.37 W/m2 FEW
16:15 8.3 °F -0.1 °F 30.54 in NW 1.0 mph 6.0 mph 68 % 0.00 in WeatherDisplay:10.37 W/m2 FEW
16:25 8.0 °F -0.4 °F 30.54 in Calm   4.0 mph 68 % 0.00 in WeatherDisplay:10.37 W/m2 FEW
16:30 7.9 °F -0.2 °F 30.55 in NW 1.0 mph 3.0 mph 69 % 0.00 in WeatherDisplay:10.37 W/m2 FEW
16:35 7.7 °F -0.4 °F 30.55 in Calm   3.0 mph 69 % 0.00 in WeatherDisplay:10.37 W/m2 FEW
16:45 7.3 °F -0.7 °F 30.55 in Calm   5.0 mph 69 % 0.00 in WeatherDisplay:10.37 W/m2 FEW
16:50 7.2 °F -0.6 °F 30.55 in NW 3.0 mph 6.0 mph 70 % 0.00 in WeatherDisplay:10.37 W/m2 FEW
17:00 6.7 °F -1.0 °F 30.55 in NW 1.0 mph 5.0 mph 70 % 0.00 in WeatherDisplay:10.37 W/m2 FEW
17:10 6.4 °F -1.3 °F 30.55 in Calm   2.0 mph 70 % 0.00 in WeatherDisplay:10.37 W/m2 FEW
17:15 6.3 °F -1.4 °F 30.56 in Calm   3.0 mph 70 % 0.00 in WeatherDisplay:10.37 W/m2 FEW
17:25 6.1 °F -1.6 °F 30.56 in Calm   2.0 mph 70 % 0.00 in WeatherDisplay:10.37 W/m2 FEW
17:35 5.7 °F -1.7 °F 30.56 in Calm   2.0 mph 71 % 0.00 in WeatherDisplay:10.37 W/m2 FEW
17:45 5.3 °F -2.1 °F 30.56 in Calm     71 % 0.00 in WeatherDisplay:10.37 W/m2 FEW
17:55 4.9 °F -2.5 °F 30.57 in Calm     71 % 0.00 in WeatherDisplay:10.37 W/m2 FEW
18:05 4.4 °F -2.9 °F 30.57 in Calm     71 % 0.00 in WeatherDisplay:10.37 W/m2 FEW
18:10 4.1 °F -2.9 °F 30.57 in Calm   1.0 mph 72 % 0.00 in WeatherDisplay:10.37 W/m2 FEW
18:15 3.6 °F -3.4 °F 30.58 in Calm   1.0 mph 72 % 0.00 in WeatherDisplay:10.37 W/m2 FEW
18:25 2.8 °F -3.9 °F 30.58 in Calm     73 % 0.00 in WeatherDisplay:10.37 W/m2 FEW
18:35 2.3 °F -4.1 °F 30.59 in Calm     74 % 0.00 in WeatherDisplay:10.37 W/m2 FEW
18:40 2.0 °F -4.4 °F 30.59 in Calm     74 % 0.00 in WeatherDisplay:10.37 W/m2 FEW
18:45 1.7 °F -4.7 °F 30.59 in Calm     74 % 0.00 in WeatherDisplay:10.37 W/m2 FEW
18:50 1.4 °F -5.0 °F 30.59 in Calm     74 % 0.00 in WeatherDisplay:10.37 W/m2 FEW
18:55 1.1 °F -5.0 °F 30.59 in Calm     75 % 0.00 in WeatherDisplay:10.37 W/m2 FEW
19:05 0.5 °F -5.3 °F 30.59 in Calm     76 % 0.00 in WeatherDisplay:10.37 W/m2 FEW
19:10 0.2 °F -5.3 °F 30.59 in Calm     77 % 0.00 in WeatherDisplay:10.37 W/m2 FEW
19:20 -0.2 °F -5.4 °F 30.59 in Calm     78 % 0.00 in WeatherDisplay:10.37 W/m2 FEW
19:25 -0.3 °F -5.6 °F 30.59 in Calm     78 % 0.00 in WeatherDisplay:10.37 W/m2 FEW
19:30 -0.5 °F -5.7 °F 30.59 in Calm     78 % 0.00 in WeatherDisplay:10.37 W/m2 FEW
19:35 -0.6 °F -5.8 °F 30.59 in Calm     78 % 0.00 in WeatherDisplay:10.37 W/m2 FEW
19:40 -0.8 °F -6.0 °F 30.58 in Calm     78 % 0.00 in WeatherDisplay:10.37 W/m2 FEW
19:45 -1.0 °F -6.2 °F 30.59 in Calm     78 % 0.00 in WeatherDisplay:10.37 W/m2 FEW
19:55 -1.3 °F -6.5 °F 30.59 in Calm     78 % 0.00 in WeatherDisplay:10.37 W/m2 FEW
20:00 -1.5 °F -6.7 °F 30.59 in Calm     78 % 0.00 in WeatherDisplay:10.37 W/m2 FEW
20:05 -1.7 °F -6.9 °F 30.59 in Calm     78 % 0.00 in WeatherDisplay:10.37 W/m2 FEW
20:10 -2.0 °F -7.2 °F 30.59 in Calm   1.0 mph 78 % 0.00 in WeatherDisplay:10.37 W/m2 FEW
20:15 -2.2 °F -7.4 °F 30.59 in Calm     78 % 0.00 in WeatherDisplay:10.37 W/m2 FEW
20:20 -2.4 °F -7.6 °F 30.59 in Calm     78 % 0.00 in WeatherDisplay:10.37 W/m2 FEW
20:25 -2.6 °F -7.8 °F 30.59 in Calm     78 % 0.00 in WeatherDisplay:10.37 W/m2 FEW
20:30 -2.7 °F -7.9 °F 30.59 in Calm     78 % 0.00 in WeatherDisplay:10.37 W/m2 FEW
20:35 -3.0 °F -8.1 °F 30.59 in Calm     78 % 0.00 in WeatherDisplay:10.37 W/m2 FEW
20:40 -3.1 °F -8.3 °F 30.59 in Calm     78 % 0.00 in WeatherDisplay:10.37 W/m2 FEW
20:45 -3.3 °F -8.2 °F 30.59 in Calm     79 % 0.00 in WeatherDisplay:10.37 W/m2 FEW
20:55 -3.7 °F -8.6 °F 30.58 in Calm     79 % 0.00 in WeatherDisplay:10.37 W/m2 FEW
21:00 -3.8 °F -8.7 °F 30.58 in Calm     79 % 0.00 in WeatherDisplay:10.37 W/m2 FEW
21:05 -4.0 °F -8.9 °F 30.58 in Calm     79 % 0.00 in WeatherDisplay:10.37 W/m2 FEW
21:10 -4.1 °F -9.0 °F 30.59 in Calm     79 % 0.00 in WeatherDisplay:10.37 W/m2 FEW
21:15 -4.4 °F -9.3 °F 30.58 in Calm     79 % 0.00 in WeatherDisplay:10.37 W/m2 FEW
21:20 -4.5 °F -9.4 °F 30.58 in Calm     79 % 0.00 in WeatherDisplay:10.37 W/m2 FEW
21:25 -4.6 °F -9.2 °F 30.58 in Calm     80 % 0.00 in WeatherDisplay:10.37 W/m2 FEW
21:30 -4.8 °F -9.7 °F 30.58 in Calm     79 % 0.00 in WeatherDisplay:10.37 W/m2 FEW
21:35 -4.9 °F -9.8 °F 30.58 in Calm     79 % 0.00 in WeatherDisplay:10.37 W/m2 FEW
21:45 -5.2 °F -9.8 °F 30.58 in Calm     80 % 0.00 in WeatherDisplay:10.37 W/m2 FEW
21:50 -5.4 °F -10.3 °F 30.58 in Calm     79 % 0.00 in WeatherDisplay:10.37 W/m2 FEW
21:55 -5.7 °F -10.2 °F 30.58 in Calm     80 % 0.00 in WeatherDisplay:10.37 W/m2 FEW
22:00 -5.9 °F -10.5 °F 30.58 in Calm     80 % 0.00 in WeatherDisplay:10.37 W/m2 FEW
22:05 -6.0 °F -10.6 °F 30.58 in Calm     80 % 0.00 in WeatherDisplay:10.37 W/m2 FEW
22:10 -6.2 °F -10.5 °F 30.59 in Calm     81 % 0.00 in WeatherDisplay:10.37 W/m2 FEW
22:15 -6.4 °F -10.7 °F 30.59 in Calm     81 % 0.00 in WeatherDisplay:10.37 W/m2 FEW
22:20 -6.5 °F -10.8 °F 30.58 in Calm     81 % 0.00 in WeatherDisplay:10.37 W/m2 FEW
22:25 -6.6 °F -10.9 °F 30.58 in Calm   1.0 mph 81 % 0.00 in WeatherDisplay:10.37 W/m2 FEW
22:30 -6.7 °F -11.0 °F 30.58 in Calm   1.0 mph 81 % 0.00 in WeatherDisplay:10.37 W/m2 FEW
22:35 -6.8 °F -10.8 °F 30.59 in Calm     82 % 0.00 in WeatherDisplay:10.37 W/m2 FEW
22:40 -6.8 °F -10.9 °F 30.59 in Calm     82 % 0.00 in WeatherDisplay:10.37 W/m2 FEW
22:45 -6.9 °F -10.9 °F 30.59 in Calm     82 % 0.00 in WeatherDisplay:10.37 W/m2 FEW
22:50 -6.9 °F -10.9 °F 30.59 in Calm     82 % 0.00 in WeatherDisplay:10.37 W/m2 FEW
22:55 -7.0 °F -11.0 °F 30.59 in Calm     82 % 0.00 in WeatherDisplay:10.37 W/m2 FEW
23:05 -7.3 °F -11.3 °F 30.59 in Calm   1.0 mph 82 % 0.00 in WeatherDisplay:10.37 W/m2 FEW
23:10 -7.4 °F -11.4 °F 30.59 in Calm     82 % 0.00 in WeatherDisplay:10.37 W/m2 FEW
23:15 -7.5 °F -11.5 °F 30.59 in Calm     82 % 0.00 in WeatherDisplay:10.37 W/m2 FEW
23:20 -7.6 °F -11.6 °F 30.59 in Calm     82 % 0.00 in WeatherDisplay:10.37 W/m2 FEW
23:25 -7.7 °F -11.7 °F 30.59 in Calm     82 % 0.00 in WeatherDisplay:10.37 W/m2 FEW
23:30 -7.8 °F -11.8 °F 30.59 in Calm     82 % 0.00 in WeatherDisplay:10.37 W/m2 FEW
23:35 -7.9 °F -11.9 °F 30.58 in Calm     82 % 0.00 in WeatherDisplay:10.37 W/m2 FEW
23:40 -8.0 °F -12.0 °F 30.58 in Calm     82 % 0.00 in WeatherDisplay:10.37 W/m2 FEW
23:45 -8.1 °F -12.1 °F 30.58 in Calm     82 % 0.00 in WeatherDisplay:10.37 W/m2 FEW
23:50 -8.2 °F -12.2 °F 30.58 in Calm     82 % 0.00 in WeatherDisplay:10.37 W/m2 FEW
23:55 -8.3 °F -12.3 °F 30.58 in Calm     82 % 0.00 in WeatherDisplay:10.37 W/m2 FEW
Juneau County Weather
Compliments of Weather Underground - 2.75 mb